Time;durP1;ratioP1;P1;durP2;ratioP2;P2;SDS_P1;SDS_P2;PMS_P1;PMS_P2;Temp;Humidity;BMP_temperature;BMP_pressure;BME280_temperature;BME280_humidity;BME280_pressure;Samples;Min_cycle;Max_cycle;Signal;HPM_P1;HPM_P2
2023/05/08 00:00:04;;;;;;;;;13.00;12.00;;;;;-147.17;100.00;-15917.19;5051796;28;51010;-61
2023/05/08 00:02:30;;;;;;;;;13.33;13.00;;;;;-147.17;100.00;-15917.19;5053114;28;51201;-62
2023/05/08 00:04:55;;;;;;;;;14.00;13.00;;;;;-147.17;100.00;-15917.19;5054088;28;51079;-61
2023/05/08 00:07:21;;;;;;;;;17.25;15.00;;;;;-147.17;100.00;-15917.19;5053307;28;51299;-62
2023/05/08 00:09:46;;;;;;;;;14.00;13.33;;;;;-147.17;100.00;-15917.19;5059715;28;51102;-61
2023/05/08 00:12:11;;;;;;;;;13.00;13.00;;;;;-147.17;100.00;-15917.19;5056818;28;51233;-62
2023/05/08 00:14:37;;;;;;;;;16.25;14.00;;;;;-147.17;100.00;-15917.19;5075679;28;51160;-62
2023/05/08 00:17:02;;;;;;;;;16.50;14.50;;;;;-147.17;100.00;-15917.19;5075149;28;57657;-62
2023/05/08 00:19:27;;;;;;;;;12.67;12.67;;;;;-147.17;100.00;-15917.19;5075833;28;51014;-61
2023/05/08 00:21:52;;;;;;;;;14.00;13.67;;;;;-147.17;100.00;-15917.19;5070127;28;51195;-63
2023/05/08 00:24:18;;;;;;;;;12.00;9.00;;;;;-147.17;100.00;-15917.19;5074549;28;51153;-63
2023/05/08 00:26:44;;;;;;;;;12.67;12.00;;;;;-147.17;100.00;-15917.19;5075198;28;52184;-62
2023/05/08 00:29:10;;;;;;;;;11.00;11.00;;;;;-147.17;100.00;-15917.19;5074343;28;50895;-62
2023/05/08 00:31:35;;;;;;;;;11.00;10.33;;;;;-147.17;100.00;-15917.19;5075404;28;51129;-63
2023/05/08 00:34:01;;;;;;;;;11.00;11.00;;;;;-147.17;100.00;-15917.19;5070427;28;51454;-62
2023/05/08 00:36:26;;;;;;;;;13.33;13.33;;;;;-147.17;100.00;-15917.19;5063632;28;51945;-63
2023/05/08 00:38:51;;;;;;;;;16.00;14.33;;;;;-147.17;100.00;-15917.19;5074507;28;51063;-62
2023/05/08 00:41:17;;;;;;;;;11.00;11.00;;;;;-147.17;100.00;-15917.19;5065374;28;50983;-62
2023/05/08 00:43:42;;;;;;;;;15.00;14.00;;;;;-147.17;100.00;-15917.19;5066939;28;51170;-62
2023/05/08 00:46:08;;;;;;;;;16.00;15.00;;;;;-147.17;100.00;-15917.19;5074192;28;51997;-61
2023/05/08 00:48:35;;;;;;;;;13.00;13.00;;;;;-147.17;100.00;-15917.19;5075026;28;51250;-62
2023/05/08 00:51:03;;;;;;;;;12.67;11.67;;;;;-147.17;100.00;-15917.19;5075301;28;51215;-62
2023/05/08 00:53:31;;;;;;;;;11.33;11.33;;;;;-147.17;100.00;-15917.19;5064285;28;51046;-63
2023/05/08 00:55:57;;;;;;;;;14.00;14.00;;;;;-147.17;100.00;-15917.19;5037248;28;52327;-62
2023/05/08 00:58:26;;;;;;;;;13.67;13.00;;;;;-147.17;100.00;-15917.19;5048254;28;51166;-62
2023/05/08 01:00:54;;;;;;;;;13.00;12.00;;;;;-147.17;100.00;-15917.19;5074555;28;51098;-63
2023/05/08 01:03:20;;;;;;;;;13.00;13.00;;;;;-147.17;100.00;-15917.19;5073497;28;51105;-62
2023/05/08 01:05:45;;;;;;;;;16.33;15.33;;;;;-147.17;100.00;-15917.19;5074528;28;51005;-62
2023/05/08 01:08:11;;;;;;;;;14.00;12.33;;;;;-147.17;100.00;-15917.19;5075119;28;50983;-62
2023/05/08 01:11:11;;;;;;;;;14.75;13.50;;;;;-147.17;100.00;-15917.19;5059090;28;51344;-62
2023/05/08 01:13:55;;;;;;;;;12.00;12.00;;;;;-147.17;100.00;-15917.19;5043130;28;51269;-62
2023/05/08 01:16:44;;;;;;;;;11.33;10.33;;;;;-147.17;100.00;-15917.19;5054448;28;51953;-61
2023/05/08 01:19:34;;;;;;;;;12.00;12.00;;;;;-147.17;100.00;-15917.19;5053993;28;51019;-62
2023/05/08 01:22:15;;;;;;;;;12.33;11.33;;;;;-147.17;100.00;-15917.19;5052111;28;51137;-61
2023/05/08 01:25:15;;;;;;;;;14.00;13.33;;;;;-147.17;100.00;-15917.19;5061814;28;51423;-62
2023/05/08 01:27:57;;;;;;;;;11.33;11.33;;;;;-147.17;100.00;-15917.19;5074315;28;51842;-63
2023/05/08 01:30:53;;;;;;;;;15.75;14.50;;;;;-147.17;100.00;-15917.19;5057872;28;51133;-61
2023/05/08 01:33:27;;;;;;;;;12.00;12.00;;;;;-147.17;100.00;-15917.19;5054217;28;51287;-62
2023/05/08 01:36:00;;;;;;;;;13.33;12.33;;;;;-147.17;100.00;-15917.19;5068373;28;50985;-62
2023/05/08 01:38:39;;;;;;;;;13.25;12.75;;;;;-147.17;100.00;-15917.19;5073459;28;51919;-62
2023/05/08 01:41:13;;;;;;;;;14.00;14.00;;;;;-147.17;100.00;-15917.19;5054233;28;51042;-63
2023/05/08 01:43:49;;;;;;;;;15.50;14.50;;;;;-147.17;100.00;-15917.19;5053811;28;51166;-62
2023/05/08 01:46:26;;;;;;;;;16.50;16.00;;;;;-147.17;100.00;-15917.19;5052709;28;51045;-62
2023/05/08 01:49:08;;;;;;;;;14.67;14.67;;;;;-147.17;100.00;-15917.19;5053877;28;50971;-62
2023/05/08 01:51:42;;;;;;;;;12.67;12.00;;;;;-147.17;100.00;-15917.19;5053746;28;51089;-61
2023/05/08 01:54:13;;;;;;;;;11.00;11.00;;;;;-147.17;100.00;-15917.19;5061683;28;51031;-62
2023/05/08 01:56:41;;;;;;;;;18.75;17.50;;;;;-147.17;100.00;-15917.19;5058205;28;51027;-61
2023/05/08 01:59:08;;;;;;;;;13.67;13.00;;;;;-147.17;100.00;-15917.19;5053322;28;52012;-62
2023/05/08 02:01:34;;;;;;;;;14.33;14.00;;;;;-147.17;100.00;-15917.19;5053701;28;51025;-62
2023/05/08 02:04:02;;;;;;;;;17.00;15.67;;;;;-147.17;100.00;-15917.19;5053818;28;51138;-62
2023/05/08 02:06:28;;;;;;;;;12.00;11.33;;;;;-147.17;100.00;-15917.19;5053718;28;52078;-61
2023/05/08 02:08:56;;;;;;;;;16.25;16.25;;;;;-147.17;100.00;-15917.19;5080808;27;52035;-61
2023/05/08 02:11:23;;;;;;;;;16.00;15.00;;;;;-147.17;100.00;-15917.19;5073834;28;51232;-62
2023/05/08 02:13:50;;;;;;;;;29.50;27.00;;;;;-147.17;100.00;-15917.19;5072242;28;51151;-61
2023/05/08 02:16:17;;;;;;;;;16.00;16.00;;;;;-147.17;100.00;-15917.19;5074138;28;50996;-61
2023/05/08 02:18:49;;;;;;;;;20.25;19.25;;;;;-147.17;100.00;-15917.19;5063041;28;51731;-62
2023/05/08 02:21:17;;;;;;;;;18.00;16.25;;;;;-147.17;100.00;-15917.19;5053379;28;50967;-62
2023/05/08 02:23:44;;;;;;;;;23.75;21.50;;;;;-147.17;100.00;-15917.19;5069456;28;51226;-62
2023/05/08 02:26:12;;;;;;;;;18.00;17.25;;;;;-147.17;100.00;-15917.19;5074023;28;51471;-63
2023/05/08 02:28:39;;;;;;;;;20.25;20.00;;;;;-147.17;100.00;-15917.19;5073197;28;52074;-63
2023/05/08 02:31:06;;;;;;;;;16.00;16.00;;;;;-147.17;100.00;-15917.19;5068461;28;51138;-62
2023/05/08 02:33:33;;;;;;;;;16.75;16.25;;;;;-147.17;100.00;-15917.19;5052025;28;51259;-61
2023/05/08 02:35:59;;;;;;;;;23.00;21.75;;;;;-147.17;100.00;-15917.19;5060873;28;51096;-62
2023/05/08 02:38:26;;;;;;;;;21.50;20.25;;;;;-147.17;100.00;-15917.19;5052808;28;53857;-61
2023/05/08 02:40:55;;;;;;;;;21.25;20.75;;;;;-147.17;100.00;-15917.19;5057377;28;51065;-62
2023/05/08 02:43:20;;;;;;;;;16.75;16.00;;;;;-147.17;100.00;-15917.19;5072731;28;51149;-62
2023/05/08 02:45:57;;;;;;;;;17.75;17.00;;;;;-147.17;100.00;-15917.19;5071887;28;51318;-62
2023/05/08 02:48:32;;;;;;;;;18.50;16.75;;;;;-147.17;100.00;-15917.19;5072979;28;50998;-62
2023/05/08 02:51:20;;;;;;;;;14.75;13.00;;;;;-147.17;100.00;-15917.19;5073051;28;51061;-61
2023/05/08 02:54:09;;;;;;;;;16.50;15.50;;;;;-147.17;100.00;-15917.19;5059018;28;51072;-62
2023/05/08 02:57:07;;;;;;;;;19.50;19.50;;;;;-147.17;100.00;-15917.19;5042257;28;51299;-62
2023/05/08 02:59:45;;;;;;;;;15.25;14.50;;;;;-147.17;100.00;-15917.19;5032257;28;52054;-62
2023/05/08 03:02:25;;;;;;;;;17.75;15.25;;;;;-147.17;100.00;-15917.19;5073138;28;51090;-62
2023/05/08 03:04:58;;;;;;;;;20.00;19.25;;;;;-147.17;100.00;-15917.19;5073128;28;51203;-62
2023/05/08 03:07:26;;;;;;;;;16.00;16.00;;;;;-147.17;100.00;-15917.19;5073358;28;50983;-61
2023/05/08 03:10:01;;;;;;;;;22.50;21.50;;;;;-147.17;100.00;-15917.19;5047673;28;52628;-62
2023/05/08 03:12:29;;;;;;;;;17.75;17.00;;;;;-147.17;100.00;-15917.19;5052787;28;50912;-62
2023/05/08 03:15:11;;;;;;;;;19.00;17.00;;;;;-147.17;100.00;-15917.19;5066169;28;51017;-62
2023/05/08 03:17:41;;;;;;;;;19.00;18.25;;;;;-147.17;100.00;-15917.19;5073266;28;50923;-62
2023/05/08 03:20:11;;;;;;;;;22.50;21.00;;;;;-147.17;100.00;-15917.19;5072724;28;51057;-62
2023/05/08 03:22:39;;;;;;;;;24.75;24.25;;;;;-147.17;100.00;-15917.19;5071542;28;51126;-62
2023/05/08 03:25:08;;;;;;;;;20.00;16.25;;;;;-147.17;100.00;-15917.19;5072819;28;50826;-62
2023/05/08 03:27:35;;;;;;;;;32.75;31.00;;;;;-147.17;100.00;-15917.19;5060453;28;51032;-62
2023/05/08 03:30:00;;;;;;;;;21.50;19.75;;;;;-147.17;100.00;-15917.19;5068534;28;51870;-62
2023/05/08 03:32:27;;;;;;;;;19.25;19.00;;;;;-147.17;100.00;-15917.19;5067970;28;51138;-63
2023/05/08 03:34:57;;;;;;;;;18.75;18.50;;;;;-147.17;100.00;-15917.19;5072886;28;50984;-62
2023/05/08 03:37:23;;;;;;;;;22.25;21.50;;;;;-147.17;100.00;-15917.19;5072969;28;51200;-62
2023/05/08 03:39:50;;;;;;;;;26.50;24.50;;;;;-147.17;100.00;-15917.19;5072410;28;51898;-64
2023/05/08 03:42:20;;;;;;;;;19.00;18.50;;;;;-147.17;100.00;-15917.19;5071961;28;51086;-63
2023/05/08 03:44:55;;;;;;;;;23.50;20.00;;;;;-147.17;100.00;-15917.19;5071334;28;51277;-64
2023/05/08 03:47:20;;;;;;;;;22.00;21.75;;;;;-147.17;100.00;-15917.19;5046162;28;51330;-62
2023/05/08 03:49:48;;;;;;;;;19.75;19.50;;;;;-147.17;100.00;-15917.19;5074398;28;51984;-62
2023/05/08 03:52:14;;;;;;;;;21.50;20.25;;;;;-147.17;100.00;-15917.19;5076018;28;50974;-63
2023/05/08 03:54:40;;;;;;;;;20.50;18.25;;;;;-147.17;100.00;-15917.19;5068868;28;51211;-62
2023/05/08 03:57:05;;;;;;;;;21.75;20.25;;;;;-147.17;100.00;-15917.19;5055933;28;50980;-63
2023/05/08 03:59:43;;;;;;;;;23.75;22.00;;;;;-147.17;100.00;-15917.19;5066192;28;51925;-62
2023/05/08 04:02:33;;;;;;;;;26.50;24.50;;;;;-147.17;100.00;-15917.19;5068843;28;51013;-62
2023/05/08 04:05:04;;;;;;;;;20.00;19.50;;;;;-147.17;100.00;-15917.19;5069710;28;50934;-63
2023/05/08 04:07:40;;;;;;;;;20.33;19.33;;;;;-147.17;100.00;-15917.19;5069305;28;51148;-62
2023/05/08 04:10:19;;;;;;;;;24.75;23.25;;;;;-147.17;100.00;-15917.19;5069297;28;52331;-60
2023/05/08 04:12:44;;;;;;;;;24.50;24.50;;;;;-147.17;100.00;-15917.19;5074256;28;51105;-63
2023/05/08 04:15:16;;;;;;;;;22.25;20.75;;;;;-147.17;100.00;-15917.19;5075392;28;51058;-62
2023/05/08 04:17:46;;;;;;;;;19.75;19.75;;;;;-147.17;100.00;-15917.19;5076135;28;51042;-62
2023/05/08 04:20:18;;;;;;;;;23.50;22.00;;;;;-147.17;100.00;-15917.19;5059380;28;50991;-63
2023/05/08 04:22:45;;;;;;;;;25.25;23.75;;;;;-147.17;100.00;-15917.19;5055599;28;51017;-62
2023/05/08 04:25:13;;;;;;;;;22.25;21.00;;;;;-147.17;100.00;-15917.19;5065129;28;51133;-62
2023/05/08 04:27:39;;;;;;;;;20.50;19.50;;;;;-147.17;100.00;-15917.19;5074379;28;50951;-62
2023/05/08 04:30:06;;;;;;;;;21.50;21.00;;;;;-147.17;100.00;-15917.19;5071802;28;51985;-64
2023/05/08 04:32:34;;;;;;;;;17.25;16.75;;;;;-147.17;100.00;-15917.19;5074386;28;51091;-63
2023/05/08 04:34:59;;;;;;;;;20.50;20.00;;;;;-147.17;100.00;-15917.19;5059948;28;51141;-62
2023/05/08 04:37:27;;;;;;;;;18.00;17.50;;;;;-147.17;100.00;-15917.19;5055359;28;51123;-63
2023/05/08 04:39:53;;;;;;;;;20.50;20.50;;;;;-147.17;100.00;-15917.19;5054748;28;52879;-62
2023/05/08 04:42:20;;;;;;;;;21.75;21.75;;;;;-147.17;100.00;-15917.19;5055158;28;50998;-63
2023/05/08 04:44:46;;;;;;;;;20.75;18.25;;;;;-147.17;100.00;-15917.19;5057800;28;50923;-63
2023/05/08 04:47:12;;;;;;;;;21.50;19.00;;;;;-147.17;100.00;-15917.19;5055068;28;50933;-62
2023/05/08 04:49:37;;;;;;;;;20.00;19.00;;;;;-147.17;100.00;-15917.19;5054812;28;51721;-62
2023/05/08 04:52:02;;;;;;;;;15.75;15.75;;;;;-147.17;100.00;-15917.19;5068371;28;51087;-62
2023/05/08 04:54:28;;;;;;;;;17.25;17.00;;;;;-147.17;100.00;-15917.19;5059186;28;51183;-62
2023/05/08 04:56:53;;;;;;;;;16.75;15.50;;;;;-147.17;100.00;-15917.19;5074961;28;52123;-63
2023/05/08 04:59:19;;;;;;;;;21.75;20.25;;;;;-147.17;100.00;-15917.19;5072276;28;51129;-63
2023/05/08 05:01:46;;;;;;;;;18.25;16.75;;;;;-147.17;100.00;-15917.19;5061390;28;51079;-62
2023/05/08 05:04:11;;;;;;;;;20.25;18.50;;;;;-147.17;100.00;-15917.19;5054620;28;50981;-62
2023/05/08 05:06:37;;;;;;;;;16.25;16.00;;;;;-147.17;100.00;-15917.19;5054825;28;50856;-62
2023/05/08 05:09:03;;;;;;;;;18.25;17.00;;;;;-147.17;100.00;-15917.19;5064884;28;51817;-61
2023/05/08 05:11:28;;;;;;;;;19.50;18.00;;;;;-147.17;100.00;-15917.19;5054294;28;51272;-62
2023/05/08 05:13:53;;;;;;;;;19.25;16.50;;;;;-147.17;100.00;-15917.19;5064664;28;50922;-62
2023/05/08 05:16:19;;;;;;;;;20.00;18.75;;;;;-147.17;100.00;-15917.19;5054482;28;51257;-63
2023/05/08 05:18:45;;;;;;;;;21.00;20.00;;;;;-147.17;100.00;-15917.19;5054573;28;50956;-61
2023/05/08 05:21:10;;;;;;;;;23.25;22.00;;;;;-147.17;100.00;-15917.19;5054455;28;50859;-62
2023/05/08 05:23:35;;;;;;;;;19.50;19.00;;;;;-147.17;100.00;-15917.19;5054272;28;51363;-62
2023/05/08 05:26:01;;;;;;;;;21.25;20.25;;;;;-147.17;100.00;-15917.19;5054644;28;50830;-63
2023/05/08 05:28:26;;;;;;;;;18.25;17.00;;;;;-147.17;100.00;-15917.19;5069999;28;51775;-61
2023/05/08 05:30:52;;;;;;;;;18.50;18.50;;;;;-147.17;100.00;-15917.19;5068012;28;51042;-63
2023/05/08 05:33:17;;;;;;;;;15.00;13.50;;;;;-147.17;100.00;-15917.19;5057347;28;51198;-63
2023/05/08 05:35:43;;;;;;;;;16.50;13.75;;;;;-147.17;100.00;-15917.19;5054566;28;51113;-62
2023/05/08 05:38:08;;;;;;;;;16.75;16.50;;;;;-147.17;100.00;-15917.19;5054238;28;53638;-62
2023/05/08 05:40:33;;;;;;;;;17.75;16.00;;;;;-147.17;100.00;-15917.19;5060544;28;50970;-62
2023/05/08 05:42:59;;;;;;;;;20.00;17.50;;;;;-147.17;100.00;-15917.19;5074321;28;51082;-62
2023/05/08 05:45:24;;;;;;;;;18.50;15.50;;;;;-147.17;100.00;-15917.19;5074328;28;51208;-62
2023/05/08 05:47:52;;;;;;;;;16.75;15.50;;;;;-147.17;100.00;-15917.19;5055602;28;65425;-63
2023/05/08 05:50:20;;;;;;;;;15.75;14.75;;;;;-147.17;100.00;-15917.19;5062334;28;50990;-63
2023/05/08 05:52:45;;;;;;;;;18.50;18.00;;;;;-147.17;100.00;-15917.19;5035814;28;51118;-62
2023/05/08 05:55:11;;;;;;;;;17.75;16.75;;;;;-147.17;100.00;-15917.19;5063659;28;51056;-64
2023/05/08 05:57:36;;;;;;;;;19.50;18.50;;;;;-147.17;100.00;-15917.19;5074035;28;51715;-62
2023/05/08 06:00:03;;;;;;;;;15.25;12.25;;;;;-147.17;100.00;-15917.19;5073899;28;51131;-61
2023/05/08 06:02:29;;;;;;;;;15.33;14.00;;;;;-147.17;100.00;-15917.19;5063587;28;51134;-61
2023/05/08 06:04:54;;;;;;;;;24.00;21.75;;;;;-147.17;100.00;-15917.19;5074376;28;51084;-62
2023/05/08 06:07:20;;;;;;;;;24.00;23.75;;;;;-147.17;100.00;-15917.19;5070283;27;51803;-61
2023/05/08 06:09:46;;;;;;;;;25.00;25.00;;;;;-147.17;100.00;-15917.19;5055063;28;51156;-62
2023/05/08 06:12:11;;;;;;;;;23.50;23.00;;;;;-147.17;100.00;-15917.19;5073823;28;51033;-61
2023/05/08 06:14:36;;;;;;;;;25.50;23.75;;;;;-147.17;100.00;-15917.19;5073708;28;51078;-62
2023/05/08 06:17:02;;;;;;;;;25.25;24.75;;;;;-147.17;100.00;-15917.19;5073826;28;50972;-62
2023/05/08 06:19:27;;;;;;;;;23.25;22.25;;;;;-147.17;100.00;-15917.19;5071078;28;51089;-61
2023/05/08 06:21:53;;;;;;;;;23.50;22.00;;;;;-147.17;100.00;-15917.19;5072982;28;50964;-62
2023/05/08 06:24:18;;;;;;;;;16.50;15.75;;;;;-147.17;100.00;-15917.19;5054442;28;51030;-62
2023/05/08 06:26:45;;;;;;;;;14.50;13.50;;;;;-147.17;100.00;-15917.19;5053369;28;50913;-62
2023/05/08 06:29:10;;;;;;;;;16.25;15.25;;;;;-147.17;100.00;-15917.19;5072425;28;50927;-62
2023/05/08 06:31:36;;;;;;;;;17.00;16.00;;;;;-147.17;100.00;-15917.19;5073841;28;51496;-64
2023/05/08 06:34:01;;;;;;;;;19.00;17.75;;;;;-147.17;100.00;-15917.19;5072719;28;51138;-62
2023/05/08 06:36:27;;;;;;;;;17.25;16.75;;;;;-147.17;100.00;-15917.19;5073587;28;51596;-61
2023/05/08 06:38:52;;;;;;;;;19.25;18.50;;;;;-147.17;100.00;-15917.19;5058100;28;51087;-63
2023/05/08 06:41:17;;;;;;;;;22.00;21.00;;;;;-147.17;100.00;-15917.19;5053096;28;53678;-62
2023/05/08 06:43:43;;;;;;;;;22.25;19.00;;;;;-147.17;100.00;-15917.19;5053035;28;51284;-62
2023/05/08 06:46:08;;;;;;;;;16.25;16.25;;;;;-147.17;100.00;-15917.19;5053205;28;51629;-62
2023/05/08 06:48:33;;;;;;;;;19.75;18.25;;;;;-147.17;100.00;-15917.19;5068598;28;51155;-62
2023/05/08 06:50:59;;;;;;;;;17.50;17.00;;;;;-147.17;100.00;-15917.19;5073295;28;51266;-63
2023/05/08 06:53:24;;;;;;;;;19.00;15.75;;;;;-147.17;100.00;-15917.19;5065247;28;51363;-62
2023/05/08 06:55:50;;;;;;;;;16.00;15.00;;;;;-147.17;100.00;-15917.19;5069379;28;52232;-62
2023/05/08 06:58:15;;;;;;;;;18.50;16.00;;;;;-147.17;100.00;-15917.19;5073263;28;51171;-62
2023/05/08 07:00:41;;;;;;;;;18.75;17.50;;;;;-147.17;100.00;-15917.19;5073060;28;51164;-62
2023/05/08 07:03:07;;;;;;;;;15.75;15.00;;;;;-147.17;100.00;-15917.19;5072192;28;51345;-63
2023/05/08 07:05:32;;;;;;;;;15.50;15.00;;;;;-147.17;100.00;-15917.19;5072616;28;51657;-63
2023/05/08 07:07:57;;;;;;;;;14.50;13.75;;;;;-147.17;100.00;-15917.19;5070715;28;50888;-63
2023/05/08 07:10:23;;;;;;;;;14.00;13.75;;;;;-147.17;100.00;-15917.19;5062460;28;51133;-62
2023/05/08 07:12:48;;;;;;;;;16.25;15.50;;;;;-147.17;100.00;-15917.19;5052916;28;51090;-63
2023/05/08 07:15:14;;;;;;;;;15.67;15.00;;;;;-147.17;100.00;-15917.19;5052231;28;51146;-62
2023/05/08 07:17:40;;;;;;;;;17.25;17.25;;;;;-147.17;100.00;-15917.19;5053250;28;51021;-62
2023/05/08 07:20:06;;;;;;;;;15.25;14.25;;;;;-147.17;100.00;-15917.19;5072037;28;51280;-61
2023/05/08 07:22:32;;;;;;;;;11.50;10.00;;;;;-147.17;100.00;-15917.19;5073017;28;51145;-62
2023/05/08 07:24:57;;;;;;;;;14.75;13.00;;;;;-147.17;100.00;-15917.19;5071194;28;56156;-62
2023/05/08 07:27:22;;;;;;;;;14.50;14.00;;;;;-147.17;100.00;-15917.19;5061332;28;51256;-61
2023/05/08 07:29:48;;;;;;;;;15.00;15.00;;;;;-147.17;100.00;-15917.19;5057043;28;51083;-63
2023/05/08 07:32:14;;;;;;;;;14.00;13.50;;;;;-147.17;100.00;-15917.19;5052806;28;51105;-62
2023/05/08 07:34:39;;;;;;;;;18.00;17.25;;;;;-147.17;100.00;-15917.19;5059393;28;51986;-62
2023/05/08 07:37:05;;;;;;;;;17.25;17.00;;;;;-147.17;100.00;-15917.19;5055397;28;51158;-62
2023/05/08 07:39:30;;;;;;;;;16.50;16.00;;;;;-147.17;100.00;-15917.19;5052259;28;51663;-62
2023/05/08 07:41:56;;;;;;;;;16.75;16.50;;;;;-147.17;100.00;-15917.19;5052607;28;51075;-62
2023/05/08 07:44:21;;;;;;;;;17.00;15.67;;;;;-147.17;100.00;-15917.19;5052055;28;51016;-62
2023/05/08 07:46:46;;;;;;;;;19.25;18.25;;;;;-147.17;100.00;-15917.19;5052439;28;51184;-62
2023/05/08 07:49:12;;;;;;;;;15.50;15.25;;;;;-147.17;100.00;-15917.19;5057880;28;51269;-65
2023/05/08 07:51:39;;;;;;;;;19.25;17.25;;;;;-147.17;100.00;-15917.19;5072488;28;51030;-62
2023/05/08 07:54:04;;;;;;;;;33.25;29.00;;;;;-147.17;100.00;-15917.19;5070363;28;52816;-63
2023/05/08 07:56:30;;;;;;;;;18.75;17.75;;;;;-147.17;100.00;-15917.19;5051834;28;51140;-62
2023/05/08 07:58:55;;;;;;;;;22.50;21.50;;;;;-147.17;100.00;-15917.19;5052116;28;51074;-63
2023/05/08 08:01:20;;;;;;;;;18.75;17.25;;;;;-147.17;100.00;-15917.19;5052076;28;51290;-61
2023/05/08 08:03:46;;;;;;;;;20.00;18.00;;;;;-147.17;100.00;-15917.19;5047152;28;52916;-62
2023/05/08 08:06:12;;;;;;;;;23.00;18.50;;;;;-147.17;100.00;-15917.19;5065782;28;50941;-62
2023/05/08 08:08:38;;;;;;;;;19.00;16.75;;;;;-147.17;100.00;-15917.19;5063765;28;51035;-61
2023/05/08 08:11:04;;;;;;;;;20.50;19.00;;;;;-147.17;100.00;-15917.19;5051647;28;51225;-62
2023/05/08 08:13:31;;;;;;;;;19.00;18.00;;;;;-147.17;100.00;-15917.19;5051260;28;52278;-63
2023/05/08 08:15:56;;;;;;;;;24.25;22.75;;;;;-147.17;100.00;-15917.19;5064167;28;51199;-63
2023/05/08 08:18:22;;;;;;;;;18.00;17.00;;;;;-147.17;100.00;-15917.19;5051429;28;51115;-61
2023/05/08 08:20:47;;;;;;;;;21.25;20.25;;;;;-147.17;100.00;-15917.19;5052155;28;51154;-62
2023/05/08 08:23:12;;;;;;;;;19.50;18.50;;;;;-147.17;100.00;-15917.19;5053583;28;53026;-64
2023/05/08 08:25:38;;;;;;;;;18.00;17.00;;;;;-147.17;100.00;-15917.19;5058940;28;51138;-62
2023/05/08 08:28:03;;;;;;;;;19.25;18.25;;;;;-147.17;100.00;-15917.19;5051890;28;51101;-62
2023/05/08 08:30:29;;;;;;;;;19.50;18.50;;;;;-147.17;100.00;-15917.19;5050735;28;51002;-62
2023/05/08 08:32:54;;;;;;;;;18.50;17.75;;;;;-147.17;100.00;-15917.19;5054955;28;51735;-62
2023/05/08 08:35:19;;;;;;;;;26.25;25.50;;;;;-147.17;100.00;-15917.19;5054987;28;52825;-62
2023/05/08 08:37:45;;;;;;;;;19.33;18.67;;;;;-147.17;100.00;-15917.19;5055093;28;51011;-62
2023/05/08 08:40:11;;;;;;;;;17.50;16.50;;;;;-147.17;100.00;-15917.19;5067045;28;51191;-61
2023/05/08 08:42:36;;;;;;;;;18.25;18.25;;;;;-147.17;100.00;-15917.19;5044944;28;51920;-61
2023/05/08 08:45:02;;;;;;;;;25.25;22.00;;;;;-147.17;100.00;-15917.19;5065437;28;51043;-62
2023/05/08 08:47:30;;;;;;;;;18.25;17.50;;;;;-147.17;100.00;-15917.19;5056069;28;51151;-62
2023/05/08 08:50:01;;;;;;;;;15.00;15.00;;;;;-147.17;100.00;-15917.19;5064156;28;51208;-61
2023/05/08 08:52:56;;;;;;;;;20.50;19.00;;;;;-147.17;100.00;-15917.19;5052483;28;54117;-62
2023/05/08 08:55:24;;;;;;;;;17.50;17.00;;;;;-147.17;100.00;-15917.19;5061039;28;51292;-63
2023/05/08 08:58:07;;;;;;;;;19.25;17.75;;;;;-147.17;100.00;-15917.19;5074596;28;51114;-63
2023/05/08 09:00:36;;;;;;;;;18.00;16.25;;;;;-147.17;100.00;-15917.19;5072203;28;51389;-63
2023/05/08 09:03:03;;;;;;;;;10.25;9.00;;;;;-147.17;100.00;-15917.19;5074167;28;51738;-63
2023/05/08 09:05:30;;;;;;;;;16.00;15.00;;;;;-147.17;100.00;-15917.19;5068515;28;50976;-64
2023/05/08 09:07:57;;;;;;;;;16.67;15.33;;;;;-147.17;100.00;-15917.19;5060646;28;50938;-61
2023/05/08 09:10:23;;;;;;;;;16.50;16.50;;;;;-147.17;100.00;-15917.19;5057381;28;51267;-62
2023/05/08 09:12:49;;;;;;;;;14.67;13.67;;;;;-147.17;100.00;-15917.19;5054193;28;51949;-62
2023/05/08 09:15:14;;;;;;;;;15.00;15.00;;;;;-147.17;100.00;-15917.19;5066908;28;51006;-61
2023/05/08 09:17:39;;;;;;;;;16.25;15.00;;;;;-147.17;100.00;-15917.19;5074516;28;51363;-63
2023/05/08 09:20:06;;;;;;;;;13.50;13.00;;;;;-147.17;100.00;-15917.19;5056244;28;51200;-63
2023/05/08 09:22:35;;;;;;;;;13.33;11.67;;;;;-147.17;100.00;-15917.19;5044341;28;51726;-63
2023/05/08 09:25:02;;;;;;;;;14.00;13.00;;;;;-147.17;100.00;-15917.19;5060896;28;50977;-64
2023/05/08 09:27:29;;;;;;;;;12.33;12.00;;;;;-147.17;100.00;-15917.19;5057286;28;51201;-63
2023/05/08 09:29:59;;;;;;;;;12.00;11.00;;;;;-147.17;100.00;-15917.19;5067004;28;51280;-63
2023/05/08 09:32:25;;;;;;;;;14.33;13.33;;;;;-147.17;100.00;-15917.19;5072569;28;52199;-64
2023/05/08 09:34:53;;;;;;;;;11.33;11.00;;;;;-147.17;100.00;-15917.19;5054440;28;53329;-64
2023/05/08 09:37:19;;;;;;;;;11.67;11.67;;;;;-147.17;100.00;-15917.19;5068117;28;51181;-63
2023/05/08 09:39:46;;;;;;;;;15.33;14.33;;;;;-147.17;100.00;-15917.19;5072743;28;51006;-63
2023/05/08 09:42:12;;;;;;;;;12.00;11.00;;;;;-147.17;100.00;-15917.19;5073043;28;51132;-63
2023/05/08 09:44:55;;;;;;;;;15.67;14.67;;;;;-147.17;100.00;-15917.19;5059031;28;50940;-63
2023/05/08 09:47:22;;;;;;;;;15.33;13.00;;;;;-147.17;100.00;-15917.19;5053739;28;51162;-63
2023/05/08 09:50:00;;;;;;;;;14.00;14.00;;;;;-147.17;100.00;-15917.19;5053658;28;51221;-64
2023/05/08 09:52:31;;;;;;;;;15.00;14.00;;;;;-147.17;100.00;-15917.19;5035057;28;53147;-63
2023/05/08 09:54:56;;;;;;;;;14.67;14.00;;;;;-147.17;100.00;-15917.19;5060805;28;51016;-64
2023/05/08 09:57:22;;;;;;;;;13.00;13.00;;;;;-147.17;100.00;-15917.19;5054577;28;51284;-64
2023/05/08 09:59:47;;;;;;;;;15.00;13.00;;;;;-147.17;100.00;-15917.19;5065032;28;51289;-62
2023/05/08 10:02:15;;;;;;;;;15.00;13.33;;;;;-147.17;100.00;-15917.19;5055621;28;51532;-63
2023/05/08 10:04:40;;;;;;;;;16.67;15.67;;;;;-147.17;100.00;-15917.19;5062018;28;51005;-62
2023/05/08 10:07:06;;;;;;;;;13.67;13.67;;;;;-147.17;100.00;-15917.19;5071879;28;51124;-63
2023/05/08 10:09:31;;;;;;;;;23.00;21.75;;;;;-147.17;100.00;-15917.19;5057848;28;51157;-62
2023/05/08 10:11:56;;;;;;;;;13.00;12.67;;;;;-147.17;100.00;-15917.19;5065428;28;51233;-62
2023/05/08 10:14:22;;;;;;;;;13.67;13.33;;;;;-147.17;100.00;-15917.19;5070458;27;51477;-62
2023/05/08 10:16:50;;;;;;;;;10.00;10.00;;;;;-147.17;100.00;-15917.19;5073531;27;51135;-62
2023/05/08 10:19:18;;;;;;;;;10.33;10.33;;;;;-147.17;100.00;-15917.19;5054489;28;52714;-62
2023/05/08 10:21:49;;;;;;;;;8.33;7.67;;;;;-147.17;100.00;-15917.19;5069948;28;51062;-62
2023/05/08 10:24:19;;;;;;;;;15.00;14.33;;;;;-147.17;100.00;-15917.19;5072757;28;51097;-62
2023/05/08 10:27:03;;;;;;;;;13.33;13.33;;;;;-147.17;100.00;-15917.19;5056093;28;52043;-62
2023/05/08 10:29:49;;;;;;;;;14.33;13.00;;;;;-147.17;100.00;-15917.19;5052576;28;50936;-62
2023/05/08 10:32:19;;;;;;;;;10.00;9.67;;;;;-147.17;100.00;-15668.00;5060009;28;52430;-62
2023/05/08 10:34:48;;;;;;;;;11.00;10.00;;;;;-147.17;100.00;-15668.00;5072714;28;51045;-64
2023/05/08 10:37:16;;;;;;;;;11.33;10.00;;;;;-147.17;100.00;-15668.00;5072831;28;50895;-62
2023/05/08 10:39:43;;;;;;;;;10.33;10.33;;;;;-147.17;100.00;-15668.00;5072009;28;50865;-62
2023/05/08 10:42:09;;;;;;;;;9.00;9.00;;;;;-147.17;100.00;-15420.25;5033678;28;51837;-63
2023/05/08 10:44:35;;;;;;;;;9.00;9.00;;;;;-147.17;100.00;-14924.75;5051873;28;51417;-62
2023/05/08 10:47:11;;;;;;;;;9.67;9.00;;;;;-147.17;100.00;-14429.16;5045723;28;51552;-62
2023/05/08 10:49:55;;;;;;;;;9.67;9.00;;;;;-147.17;100.00;-13933.50;5053393;28;51154;-63
2023/05/08 10:52:31;;;;;;;;;10.00;10.00;;;;;-147.17;100.00;-11454.25;5064914;28;51930;-62